Cavern City Air Terminal
KCNM : now visible

Airfield :











YOU CAN JOIN US ON...

 
LOGIN :

Register | Disclaimer

   EN    FR    IT 

 









Legend :    VFR   Marginal VFR   IFR   Intensive IFR   Very Intensive IFR
Visi :
Ceiling :
>= 8 km
>= 3000ft
5 to 8 km
1000 to 3000 ft
1500m to 5 km
500 to 1000 ft
800 to 1500m
200 to 500 ft
< 800m
< 200 ft
Symbols :   Thunderstorms  Fog  Heavy snow  Heavy precipitations  Wind > 20 kt






- Airport Elevation : 3295 ft
- IATA code : CNM


KCNM - Cavern City Air Terminal

CURRENT METAR :
  • 081853Z AUTO 16007KT 10SM CLR 35/13 A3007 RMK AO2 SLP116 T03500128

EXPIRED METARs :
  • 081753Z AUTO 17007KT 130V200 10SM CLR 33/13 A3009 RMK AO2 SLP124 T03330128 10333 20228 58008
  • 081653Z AUTO 14008KT 10SM CLR 31/15 A3011 RMK AO2 SLP132 T03060150

TAF KCNM
Valid from the 08 at 18:00 until the 09 at 18:00 UTC


081720Z 0818/0918 16008KT P6SM SCT100 BKN250
KZAB FIR / North America



MET'MAP, your aeronautical weather chart ! - Copyright ORBIFLY December 2007 - Disclaimer

ORBIFLY MET'MAP TEAM :

Programming & Development : Alexandra Zaïnal
Concept & original design : Baudouin d'Aumeries
Assistance for programming : Marc-Olivier Méhu
Technical & hardware support : Manuel Goepfert

Contact : metmap@orbifly.com




SOURCES & CREDITS :

   NOAA       Earth
Advisory